Airfield :
LOGIN :

Register | Disclaimer

   EN    FR    IT 

 










Legend :    VFR   Marginal VFR   IFR   Intensive IFR   Very Intensive IFR
Visi :
Ceiling :
>= 8 km
>= 3000ft
5 to 8 km
1000 to 3000 ft
1500m to 5 km
500 to 1000 ft
800 to 1500m
200 to 500 ft
< 800m
< 200 ft
Symbols :   Thunderstorms  Fog  Heavy snow  Heavy precipitations  Wind > 20 kt
SIGMETs :     Misc.  Thunderstorms  Icing  Turbulence  Mountain Waves  Volcanic Ashes






- Airport Elevation : 788 ft
- IATA code : DCM


LFCK - Castres-Mazamet

CURRENT METAR :
  • 232100Z AUTO 28008KT 240V340 9999 -RA BKN008/// BKN033/// BKN066/// ///CB 14/14 Q1022 TEMPO 4000 SHRA BECMG OVC010

EXPIRED METARs :
  • 232030Z AUTO 26011KT 9999 DZ FEW009/// BKN019/// BKN045/// ///CB 15/14 Q1022 TEMPO 4000 SHRA BECMG OVC010
  • 232000Z AUTO 25014KT 9999 -DZ OVC019/// ///TCU 15/13 Q1021 TEMPO 4000 SHRA BKN015 FEW030CB OVC050
  • 231930Z AUTO 25011KT 9999 -DZ BKN014 OVC022 16/14 Q1021 TEMPO 4000 SHRA BKN015 FEW030CB OVC050
  • 231900Z AUTO 27011KT 9999 BKN018/// OVC023/// ///CB 16/14 Q1021 TEMPO 4000 SHRA

TAF TAF LFCK
Valid from the 23 at 18:00 until the 24 at 03:00 UTC


231700Z 2318/2403 27008KT 9999 BKN020 FEW030TCU OVC060
TEMPO 2318/2322 4000 SHRA BKN015 FEW030CB OVC050
BECMG 2322/2324 OVC010



MET'MAP, your aeronautical weather chart ! - Copyright ORBIFLY December 2007 - Disclaimer

ORBIFLY MET'MAP TEAM :

Programming & Development : Alexandra Zaïnal
Concept & original design : Baudouin d'Aumeries
Assistance for programming : Marc-Olivier Méhu
Technical & hardware support : Manuel Goepfert

Contact : metmap@orbifly.com




SOURCES & CREDITS :

   NOAA